Archival Weather

Snohomish County (Paine Fld)

Everett, Washington (KPAE)

Report from: Sunday, November 5, 2023 1:53 AM PST
Current time: Monday, June 24, 2024 2:29 AM PDT

Current weather – Weather history – Daily summaries
Weather forecast

Temperature11.7°C (53.1°F)
Dew point8.9°C (48.0°F)
Winds 10 kts (5.1 m/s, 11.5 mph) South-Southeast (150°)
Visibility10 mi. (16.1 km)
Clouds Ceiling: Broken clouds 1,200 ft. (366 m)
Broken clouds 2,000 ft. (610 m)
Altimeter29.85 in.Hg (1011 mB)
Relative humidity83 %
Density altitude-148 ft. (-45 m)
Sea-level pressure101.1 kPa (1011 mB, 29.85 in.Hg)
Remarks Fully automated report
Automated weather observing station with precipitation discriminator
Flight conditions Marginal Visual Meteorological Conditions
Raw dataKPAE 050953Z AUTO 15010KT 10SM BKN012 BKN020 12/09 A2985 RMK AO2 SLP108 T01170089
An error has occurred. This application may no longer respond until reloaded. Reload 🗙